Time;durP1;ratioP1;P1;durP2;ratioP2;P2;SDS_P1;SDS_P2;PMS_P1;PMS_P2;Temp;Humidity;BMP_temperature;BMP_pressure;BME280_temperature;BME280_humidity;BME280_pressure;Samples;Min_cycle;Max_cycle;Signal;HPM_P1;HPM_P2
2023/12/13 00:02:04;;;;;;;22.83;14.73;;;;;;;7.91;100.00;94350.66;7399439;19;20409;-92
2023/12/13 00:04:46;;;;;;;18.90;14.27;;;;;;;7.52;100.00;94271.19;7401294;19;20385;-93
2023/12/13 00:07:28;;;;;;;15.53;12.43;;;;;;;7.62;100.00;94290.88;7401533;19;20379;-92
2023/12/13 00:10:09;;;;;;;15.20;10.53;;;;;;;7.97;100.00;94351.97;7399777;19;20380;-91
2023/12/13 00:12:51;;;;;;;16.27;12.43;;;;;;;7.49;100.00;94297.94;7398802;19;20416;-93
2023/12/13 00:15:32;;;;;;;15.17;11.80;;;;;;;7.07;100.00;94234.81;7400467;19;20493;-92
2023/12/13 00:18:14;;;;;;;15.50;10.73;;;;;;;7.81;100.00;94352.94;7399876;19;20853;-92
2023/12/13 00:20:56;;;;;;;16.57;10.80;;;;;;;7.29;100.00;94263.03;7400409;19;20444;-92
2023/12/13 00:23:37;;;;;;;14.80;10.47;;;;;;;7.30;100.00;94284.69;7399702;19;20373;-93
2023/12/13 00:26:19;;;;;;;14.10;11.53;;;;;;;8.05;100.00;94387.63;7399916;19;20376;-92
2023/12/13 00:29:02;;;;;;;15.70;11.00;;;;;;;7.27;100.00;94267.84;7400345;19;20483;-92
2023/12/13 00:31:44;;;;;;;11.80;10.50;;;;;;;7.69;100.00;94319.78;7398434;19;20715;-91
2023/12/13 00:34:26;;;;;;;15.43;9.10;;;;;;;7.32;100.00;94264.25;7398271;19;20655;-92
2023/12/13 00:37:08;;;;;;;12.27;9.63;;;;;;;7.34;100.00;94269.91;7399748;19;20436;-92
2023/12/13 00:39:49;;;;;;;12.70;9.77;;;;;;;7.52;100.00;94317.41;7399416;19;20412;-92
2023/12/13 00:42:31;;;;;;;9.40;8.47;;;;;;;7.14;100.00;94227.94;7397720;19;20424;-92
2023/12/13 00:45:12;;;;;;;9.30;8.37;;;;;;;8.11;100.00;94353.47;7398004;19;20893;-92
2023/12/13 00:47:54;;;;;;;12.33;9.07;;;;;;;7.71;100.00;94299.34;7398803;19;20393;-92
2023/12/13 00:50:36;;;;;;;10.80;8.83;;;;;;;7.53;100.00;94275.31;7398252;19;20401;-93
2023/12/13 00:53:17;;;;;;;12.43;10.27;;;;;;;7.54;100.00;94284.66;7400264;19;20870;-92
2023/12/13 00:55:59;;;;;;;10.43;8.93;;;;;;;7.69;100.00;94317.16;7399866;19;20377;-92
2023/12/13 00:58:40;;;;;;;13.07;11.00;;;;;;;7.35;100.00;94251.31;7400051;19;20672;-93
2023/12/13 01:01:22;;;;;;;11.10;9.10;;;;;;;8.15;100.00;94354.31;7398277;19;20412;-93
2023/12/13 01:04:03;;;;;;;13.20;10.43;;;;;;;7.85;100.00;94304.22;7399256;19;20493;-93
2023/12/13 01:06:45;;;;;;;10.13;9.13;;;;;;;7.73;100.00;94305.00;7399761;19;20798;-93
2023/12/13 01:09:29;;;;;;;9.40;8.40;;;;;;;7.64;100.00;94281.63;7398907;19;20877;-93
2023/12/13 01:12:13;;;;;;;12.60;9.87;;;;;;;8.06;100.00;94336.16;7398679;19;20427;-93
2023/12/13 01:14:54;;;;;;;12.47;10.73;;;;;;;7.95;100.00;94346.28;7414174;19;20406;-90
2023/12/13 01:17:35;;;;;;;15.27;9.60;;;;;;;7.67;100.00;94303.69;7411476;19;20384;-91
2023/12/13 01:20:17;;;;;;;11.37;10.17;;;;;;;7.32;100.00;94269.47;7404179;19;20384;-93
2023/12/13 01:22:58;;;;;;;10.70;8.67;;;;;;;8.10;100.00;94370.97;7398037;19;20368;-93
2023/12/13 01:25:40;;;;;;;11.10;9.67;;;;;;;7.51;100.00;94318.50;7398201;19;20384;-92
2023/12/13 01:28:21;;;;;;;10.10;8.63;;;;;;;7.33;100.00;94284.81;7398234;19;20397;-92
2023/12/13 01:31:09;;;;;;;11.13;9.93;;;;;;;7.21;100.00;94258.72;7397362;19;20940;-93
2023/12/13 01:33:50;;;;;;;10.60;9.30;;;;;;;7.19;100.00;94273.94;7398086;19;20368;-93
2023/12/13 01:36:32;;;;;;;10.17;9.17;;;;;;;7.41;100.00;94277.94;7398583;19;20865;-93
2023/12/13 01:39:15;;;;;;;9.50;7.87;;;;;;;7.03;100.00;94216.44;7397645;19;20470;-93
2023/12/13 01:41:57;;;;;;;9.03;8.17;;;;;;;7.31;100.00;94275.78;7397543;19;20380;-92
2023/12/13 01:44:38;;;;;;;9.43;8.43;;;;;;;7.44;100.00;94295.56;7396007;19;20409;-93
2023/12/13 01:47:20;;;;;;;9.37;7.97;;;;;;;7.40;100.00;94298.06;7398302;19;20365;-92
2023/12/13 01:50:04;;;;;;;9.60;8.20;;;;;;;8.01;100.00;94388.63;7397166;19;20377;-93
2023/12/13 01:52:45;;;;;;;11.07;8.30;;;;;;;6.64;100.00;94180.59;7395744;19;20412;-93
2023/12/13 01:55:27;;;;;;;10.50;8.90;;;;;;;6.75;100.00;94215.56;7398116;19;20392;-93
2023/12/13 01:58:08;;;;;;;12.40;9.60;;;;;;;7.89;100.00;94376.34;7398527;19;20369;-93
2023/12/13 02:00:51;;;;;;;10.70;8.73;;;;;;;6.90;100.00;94233.16;7397445;19;20371;-93
2023/12/13 02:03:35;;;;;;;12.30;9.60;;;;;;;7.08;100.00;94262.41;7396948;19;20381;-93
2023/12/13 02:06:16;;;;;;;12.47;9.50;;;;;;;7.37;100.00;94292.72;7397727;19;20396;-93
2023/12/13 02:08:58;;;;;;;10.63;9.13;;;;;;;6.99;100.00;94240.88;7397617;19;20396;-93
2023/12/13 02:11:40;;;;;;;11.13;8.90;;;;;;;7.85;100.00;94362.44;7394852;19;20421;-94
2023/12/13 02:14:21;;;;;;;11.13;9.10;;;;;;;7.96;100.00;94352.28;7396633;19;20388;-93
2023/12/13 02:17:03;;;;;;;9.83;8.93;;;;;;;7.33;100.00;94265.78;7398411;19;20370;-93
2023/12/13 02:19:45;;;;;;;10.13;9.03;;;;;;;6.54;100.00;94151.28;7397435;19;20387;-94
2023/12/13 02:22:26;;;;;;;11.87;9.13;;;;;;;7.49;100.00;94284.91;7395297;19;20404;-93
2023/12/13 02:25:15;;;;;;;10.30;9.20;;;;;;;7.25;100.00;94272.63;7396418;19;20972;-94
2023/12/13 02:27:56;;;;;;;10.63;9.43;;;;;;;7.66;100.00;94330.88;7397680;19;20853;-93
2023/12/13 02:30:39;;;;;;;13.23;9.13;;;;;;;6.84;100.00;94221.44;7395489;19;20398;-93
2023/12/13 02:33:27;;;;;;;18.50;9.90;;;;;;;6.38;100.00;94170.47;7396041;19;20397;-93
2023/12/13 02:36:09;;;;;;;12.27;8.90;;;;;;;6.80;100.00;94231.75;7397183;19;20385;-94
2023/12/13 02:38:50;;;;;;;10.97;9.37;;;;;;;7.07;100.00;94264.25;7395838;19;20414;-94
2023/12/13 02:41:32;;;;;;;10.40;9.10;;;;;;;6.81;100.00;94217.66;7395567;19;20424;-93
2023/12/13 02:44:13;;;;;;;12.20;10.10;;;;;;;6.69;100.00;94183.00;7395898;19;20408;-94
2023/12/13 02:46:57;;;;;;;12.50;10.80;;;;;;;7.28;100.00;94266.75;7395938;19;20376;-94
2023/12/13 02:49:39;;;;;;;12.50;10.20;;;;;;;7.88;100.00;94351.31;7396311;19;20416;-94
2023/12/13 02:52:20;;;;;;;10.93;9.80;;;;;;;6.92;100.00;94210.16;7394253;19;20413;-94
2023/12/13 02:55:02;;;;;;;12.47;11.17;;;;;;;6.69;100.00;94188.19;7396122;19;20447;-93
2023/12/13 02:57:44;;;;;;;11.50;10.13;;;;;;;7.03;100.00;94236.53;7401695;19;20425;-94
2023/12/13 03:00:25;;;;;;;15.97;9.43;;;;;;;7.22;100.00;94273.28;7403639;19;20436;-94
2023/12/13 03:03:08;;;;;;;10.63;9.53;;;;;;;6.90;100.00;94219.38;7403676;19;20655;-94
2023/12/13 03:05:49;;;;;;;9.63;7.97;;;;;;;7.24;100.00;94273.72;7403125;19;20383;-93
2023/12/13 03:08:36;;;;;;;12.10;8.67;;;;;;;6.84;100.00;94214.38;7403257;19;20392;-93
2023/12/13 03:11:20;;;;;;;11.43;9.10;;;;;;;6.83;100.00;94230.34;7401896;19;20393;-94
2023/12/13 03:14:01;;;;;;;11.40;9.40;;;;;;;6.75;100.00;94218.94;7402610;19;20397;-94
2023/12/13 03:16:42;;;;;;;12.90;10.40;;;;;;;7.57;100.00;94335.44;7403493;19;20359;-93
2023/12/13 03:19:24;;;;;;;11.00;9.70;;;;;;;7.53;100.00;94342.41;7402904;19;20361;-93
2023/12/13 03:22:06;;;;;;;11.60;9.50;;;;;;;6.71;100.00;94209.47;7401347;19;20417;-93
2023/12/13 03:24:48;;;;;;;13.63;9.17;;;;;;;7.08;100.00;94252.75;7402554;19;20361;-94
2023/12/13 03:27:30;;;;;;;12.33;9.50;;;;;;;7.24;100.00;94270.34;7402789;19;20380;-94
2023/12/13 03:30:12;;;;;;;14.13;9.17;;;;;;;7.06;100.00;94259.38;7402147;19;20372;-93
2023/12/13 03:32:54;;;;;;;14.10;10.23;;;;;;;6.85;100.00;94223.72;7399943;19;20427;-94
2023/12/13 03:35:35;;;;;;;10.30;8.90;;;;;;;6.26;100.00;94134.75;7402522;19;20395;-94
2023/12/13 03:38:17;;;;;;;14.30;10.13;;;;;;;6.42;100.00;94140.84;7402509;19;20376;-93
2023/12/13 03:40:59;;;;;;;10.40;9.33;;;;;;;6.88;100.00;94191.00;7401921;19;20356;-93
2023/12/13 03:43:40;;;;;;;11.27;8.70;;;;;;;7.11;100.00;94212.97;7402055;19;20379;-93
2023/12/13 03:46:23;;;;;;;9.80;8.77;;;;;;;7.39;100.00;94252.19;7400934;19;20393;-94
2023/12/13 03:49:04;;;;;;;10.77;8.57;;;;;;;7.62;100.00;94277.81;7401491;19;20681;-93
2023/12/13 03:51:47;;;;;;;10.90;7.63;;;;;;;7.60;100.00;94277.38;7398944;19;20431;-93
2023/12/13 03:54:28;;;;;;;11.73;8.03;;;;;;;6.96;100.00;94190.16;7401253;19;20409;-94
2023/12/13 03:57:09;;;;;;;9.20;8.20;;;;;;;7.26;100.00;94247.28;7401201;19;20368;-94
2023/12/13 03:59:51;;;;;;;8.80;7.73;;;;;;;7.09;100.00;94207.31;7401255;19;20377;-94
2023/12/13 04:02:39;;;;;;;9.63;6.53;;;;;;;6.83;100.00;94165.19;7400664;19;20413;-93
2023/12/13 04:05:20;;;;;;;7.17;6.47;;;;;;;7.45;100.00;94245.66;7400865;19;20368;-93
2023/12/13 04:08:02;;;;;;;8.60;7.10;;;;;;;7.04;100.00;94184.06;7401472;19;20393;-93
2023/12/13 04:10:43;;;;;;;8.83;7.10;;;;;;;7.33;100.00;94218.81;7400458;19;20403;-94
2023/12/13 04:13:25;;;;;;;6.90;5.97;;;;;;;7.09;100.00;94175.25;7401259;19;20372;-94
2023/12/13 04:16:07;;;;;;;6.83;6.13;;;;;;;7.64;100.00;94254.75;7400414;19;20946;-94
2023/12/13 04:18:49;;;;;;;7.03;6.33;;;;;;;7.56;100.00;94224.31;7400433;19;20456;-94
2023/12/13 04:21:30;;;;;;;5.97;5.00;;;;;;;6.92;100.00;94121.50;7400090;19;20416;-93
2023/12/13 04:24:12;;;;;;;4.77;4.07;;;;;;;7.08;100.00;94127.56;7400073;19;20873;-93
2023/12/13 04:26:53;;;;;;;4.63;4.10;;;;;;;7.96;100.00;94255.63;7400557;19;20381;-93
2023/12/13 04:29:35;;;;;;;5.93;5.33;;;;;;;7.27;100.00;94180.97;7400866;19;20697;-93
2023/12/13 04:32:19;;;;;;;8.20;4.90;;;;;;;7.44;100.00;94191.94;7399644;19;20460;-94
2023/12/13 04:35:01;;;;;;;7.83;6.80;;;;;;;7.83;100.00;94272.44;7399803;19;20380;-93
2023/12/13 04:37:42;;;;;;;9.47;8.40;;;;;;;8.20;100.00;94331.31;7400632;19;20732;-93
2023/12/13 04:40:25;;;;;;;13.30;8.53;;;;;;;6.84;100.00;94120.53;7399967;19;20472;-93
2023/12/13 04:43:06;;;;;;;6.90;5.77;;;;;;;7.89;100.00;94229.34;7400646;19;20380;-93
2023/12/13 04:45:48;;;;;;;13.03;9.53;;;;;;;7.47;100.00;94193.88;7397603;19;20902;-93
2023/12/13 04:48:29;;;;;;;5.27;4.60;;;;;;;8.24;100.00;94266.88;7399196;19;20367;-93
2023/12/13 04:51:11;;;;;;;7.00;6.30;;;;;;;7.85;100.00;94224.03;7399257;19;20420;-93
2023/12/13 04:53:53;;;;;;;8.03;5.30;;;;;;;7.69;100.00;94170.97;7400537;19;20383;-93
2023/12/13 04:56:36;;;;;;;5.10;4.60;;;;;;;8.84;100.00;94321.81;7400042;19;20384;-93
2023/12/13 04:59:17;;;;;;;6.40;3.40;;;;;;;8.47;100.00;94251.41;7399360;19;20405;-93
2023/12/13 05:02:01;;;;;;;5.83;3.70;;;;;;;8.65;100.00;94276.16;7398802;19;20400;-93
2023/12/13 05:04:43;;;;;;;7.53;5.80;;;;;;;8.40;100.00;94226.94;7399196;19;20380;-92
2023/12/13 05:07:27;;;;;;;4.10;3.67;;;;;;;8.99;100.00;94305.38;7399309;19;20849;-93
2023/12/13 05:10:17;;;;;;;5.67;2.90;;;;;;;8.82;100.00;94274.31;7399715;19;20663;-93
2023/12/13 05:13:00;;;;;;;3.77;2.87;;;;;;;8.87;100.00;94290.50;7400004;19;20369;-93
2023/12/13 05:15:46;;;;;;;4.50;3.10;;;;;;;7.96;100.00;94151.94;7399867;19;20376;-93
2023/12/13 05:18:40;;;;;;;3.20;3.00;;;;;;;8.87;100.00;94308.06;7399313;19;20399;-93
2023/12/13 05:21:40;;;;;;;3.53;3.23;;;;;;;9.20;100.00;94353.00;7397702;19;20422;-93
2023/12/13 05:24:33;;;;;;;3.93;2.60;;;;;;;8.69;100.00;94265.03;7399101;19;20385;-92
2023/12/13 05:27:25;;;;;;;2.40;2.20;;;;;;;8.67;100.00;94260.13;7399467;19;20369;-93
2023/12/13 05:30:23;;;;;;;5.57;2.93;;;;;;;8.78;100.00;94265.63;7396948;19;20384;-94
2023/12/13 05:33:13;;;;;;;5.27;2.57;;;;;;;8.91;100.00;94301.84;7397718;19;20372;-93
2023/12/13 05:36:03;;;;;;;4.30;2.67;;;;;;;8.52;100.00;94245.19;7399109;19;20406;-93
2023/12/13 05:38:58;;;;;;;17.50;9.50;;;;;;;8.07;100.00;94194.75;7398497;19;20399;-94
2023/12/13 05:41:56;;;;;;;18.17;11.17;;;;;;;8.82;100.00;94295.22;7396874;19;20744;-93
2023/12/13 05:44:49;;;;;;;7.27;4.47;;;;;;;8.21;100.00;94212.66;7397086;19;20404;-93
2023/12/13 05:47:33;;;;;;;9.83;6.37;;;;;;;8.65;100.00;94283.25;7398235;19;20392;-93
2023/12/13 05:50:32;;;;;;;8.07;3.70;;;;;;;8.89;100.00;94317.09;7397617;19;20400;-92
2023/12/13 05:53:31;;;;;;;2.97;2.47;;;;;;;9.16;100.00;94348.75;7397713;19;20698;-93
2023/12/13 05:56:21;;;;;;;7.40;2.30;;;;;;;8.24;100.00;94217.22;7397960;19;20376;-93
2023/12/13 05:59:14;;;;;;;4.20;2.30;;;;;;;7.88;100.00;94157.31;7397398;19;20377;-93
2023/12/13 06:02:17;;;;;;;4.93;2.10;;;;;;;8.43;100.00;94249.78;7397295;19;20404;-93
2023/12/13 06:05:24;;;;;;;7.33;2.87;;;;;;;8.62;100.00;94274.19;7397925;19;20404;-93
2023/12/13 06:08:30;;;;;;;3.77;1.80;;;;;;;8.68;100.00;94290.41;7396799;19;20404;-93
2023/12/13 06:11:42;;;;;;;6.93;2.20;;;;;;;9.24;100.00;94381.88;7399292;19;20432;-94
2023/12/13 06:14:58;;;;;;;2.33;1.40;;;;;;;8.49;100.00;94277.97;7401563;19;20448;-95
2023/12/13 06:18:36;;;;;;;2.60;2.40;;;;;;;9.22;100.00;94376.97;7397106;19;20423;-93
2023/12/13 06:21:48;;;;;;;2.10;1.90;;;;;;;8.77;100.00;94313.78;7396063;19;20412;-96
2023/12/13 06:24:54;;;;;;;3.53;1.90;;;;;;;8.50;100.00;94271.63;7399002;19;20392;-96
2023/12/13 06:28:00;;;;;;;6.70;1.83;;;;;;;9.15;100.00;94371.56;7397523;19;20376;-96
2023/12/13 06:31:21;;;;;;;4.20;2.90;;;;;;;9.15;100.00;94374.16;7395909;19;20388;-96
2023/12/13 06:34:38;;;;;;;2.93;2.63;;;;;;;8.94;100.00;94352.72;7406703;19;20841;-96
2023/12/13 06:37:59;;;;;;;1.90;1.80;;;;;;;8.35;100.00;94265.28;7404268;19;20929;-96
2023/12/13 06:41:09;;;;;;;4.00;1.80;;;;;;;8.40;100.00;94277.38;7404928;19;20360;-96
2023/12/13 06:44:13;;;;;;;3.93;2.53;;;;;;;8.45;100.00;94276.34;7403528;19;20388;-96
2023/12/13 06:47:51;;;;;;;4.13;2.30;;;;;;;9.04;100.00;94360.09;7404053;19;20378;-96
2023/12/13 06:50:59;;;;;;;3.13;2.83;;;;;;;8.63;100.00;94301.84;7403191;19;20704;-96
2023/12/13 06:54:08;;;;;;;3.40;2.37;;;;;;;8.33;100.00;94267.47;7412774;19;20376;-96
2023/12/13 06:57:16;;;;;;;6.43;3.20;;;;;;;8.58;100.00;94301.34;7418149;19;20368;-96
2023/12/13 07:00:31;;;;;;;;;;;;;;;;;;;;;
2023/12/13 07:03:42;;;;;;;6.00;3.47;;;;;;;8.30;100.00;94255.06;7407500;19;20361;-96
2023/12/13 07:07:00;;;;;;;3.73;2.53;;;;;;;8.70;100.00;94324.81;7432728;19;20380;-91
2023/12/13 07:13:47;;;;;;;6.13;5.03;;;;;;;9.02;100.00;94370.09;7430493;19;20453;-89
2023/12/13 07:17:11;;;;;;;4.20;3.80;;;;;;;8.02;100.00;94221.13;7418557;19;20444;-95
2023/12/13 07:20:32;;;;;;;6.13;2.77;;;;;;;8.60;100.00;94302.53;7408080;19;20460;-96
2023/12/13 07:23:40;;;;;;;2.60;2.37;;;;;;;8.99;100.00;94355.06;7426258;19;20430;31
2023/12/13 07:30:25;;;;;;;7.50;2.17;;;;;;;8.89;100.00;94360.78;7408231;19;20504;31
2023/12/13 07:34:00;;;;;;;2.50;2.30;;;;;;;8.81;100.00;94353.88;7424084;19;20444;-96
2023/12/13 07:37:08;;;;;;;3.27;1.77;;;;;;;8.24;100.00;94273.94;7428928;19;20428;-96
2023/12/13 07:43:09;;;;;;;1.90;1.80;;;;;;;8.23;100.00;94261.97;7423886;19;20457;-96
2023/12/13 07:46:28;;;;;;;2.43;1.90;;;;;;;8.70;100.00;94330.06;7419454;19;20448;-96
2023/12/13 07:49:40;;;;;;;1.80;1.70;;;;;;;8.04;100.00;94223.41;7424904;19;20384;-96
2023/12/13 07:56:11;;;;;;;1.73;1.53;;;;;;;8.98;100.00;94358.78;7411077;19;20944;31
2023/12/13 08:21:28;;;;;;;;;;;;;;;;;;;;;
2023/12/13 08:24:47;;;;;;;3.20;2.00;;;;;;;9.16;100.00;94346.13;7389184;19;20214;-96
2023/12/13 08:27:55;;;;;;;2.70;2.60;;;;;;;8.09;100.00;94181.34;7390910;19;20459;-95
2023/12/13 08:31:02;;;;;;;2.70;1.50;;;;;;;8.43;100.00;94234.88;7355628;19;20501;31
2023/12/13 08:44:03;;;;;;;3.13;2.27;;;;;;;8.77;100.00;94272.69;7424926;19;20348;-93
2023/12/13 09:13:24;;;;;;;2.20;1.50;;;;;;;9.41;100.00;94378.91;7374051;19;20455;-96
2023/12/13 09:39:22;;;;;;;3.77;2.13;;;;;;;8.88;100.00;94238.94;7380503;19;20460;-92
2023/12/13 09:42:44;;;;;;;5.90;2.30;;;;;;;9.88;100.00;94357.19;7345994;19;20439;31
2023/12/13 09:56:40;;;;;;;7.53;2.70;;;;;;;10.22;100.00;94376.63;7422894;19;20411;-96
2023/12/13 10:09:55;;;;;;;3.07;1.87;;;;;;;9.67;100.00;94289.34;7429799;19;20391;-96
2023/12/13 10:29:30;;;;;;;8.07;5.47;;;;;;;9.86;100.00;94280.78;7323803;19;20481;-90
2023/12/13 10:35:47;;;;;;;7.53;2.87;;;;;;;9.93;100.00;94269.69;7425287;19;20493;-93
2023/12/13 10:42:21;;;;;;;7.93;2.43;;;;;;;10.72;100.00;94359.28;7379193;19;20485;-96
2023/12/13 10:59:42;;;;;;;4.43;1.30;;;;;;;10.90;100.00;94343.84;7419863;19;20447;-96
2023/12/13 11:03:02;;;;;;;2.23;1.10;;;;;;;11.03;100.00;94342.59;7426685;19;20411;-96
2023/12/13 11:10:29;;;;;;;2.47;2.00;;;;;;;10.93;100.00;94335.31;7427369;19;20364;-96
2023/12/13 11:17:35;;;;;;;2.50;1.47;;;;;;;11.04;100.00;94330.97;7427892;19;20373;-96
2023/12/13 11:24:04;;;;;;;2.30;1.40;;;;;;;10.96;100.00;94334.59;7424214;19;20404;-96
2023/12/13 11:27:41;;;;;;;4.17;2.00;;;;;;;10.91;100.00;94330.41;7418645;19;20455;-96
2023/12/13 11:31:21;;;;;;;4.10;1.40;;;;;;;10.80;100.00;94332.09;7424630;19;20426;-93
2023/12/13 11:34:49;;;;;;;4.50;2.23;;;;;;;10.69;100.00;94331.88;7429532;19;20410;-96
2023/12/13 11:38:32;;;;;;;3.30;3.00;;;;;;;10.65;100.00;94331.06;7430528;19;20388;-96
2023/12/13 11:41:43;;;;;;;4.70;1.30;;;;;;;10.67;100.00;94331.47;7407298;19;20460;31
2023/12/13 11:45:21;;;;;;;2.27;1.30;;;;;;;10.64;100.00;94329.56;7432119;19;20364;-96
2023/12/13 11:51:32;;;;;;;;;;;;;;;;;;;;;
2023/12/13 12:28:12;;;;;;;4.90;3.70;;;;;;;9.93;100.00;94267.81;7418272;19;20404;-96
2023/12/13 12:31:33;;;;;;;10.10;3.60;;;;;;;10.21;100.00;94320.03;7422140;19;20384;-96
2023/12/13 12:41:52;;;;;;;6.30;2.83;;;;;;;9.43;100.00;94176.97;7415637;19;20459;-95
2023/12/13 12:45:35;;;;;;;;;;;;;;;;;;;;;
2023/12/13 12:48:49;;;;;;;2.90;2.60;;;;;;;10.29;100.00;94311.22;7419683;19;20405;31
2023/12/13 12:58:15;;;;;;;4.93;3.73;;;;;;;10.51;100.00;94316.91;7420701;19;20416;-96
2023/12/13 13:02:03;;;;;;;5.33;2.30;;;;;;;10.41;100.00;94307.75;7419280;19;20464;-96
2023/12/13 13:08:50;;;;;;;3.33;1.40;;;;;;;9.66;100.00;94229.47;7427966;19;20376;-96
2023/12/13 13:15:39;;;;;;;5.50;4.60;;;;;;;10.31;100.00;94316.88;7427179;19;20428;-96
2023/12/13 13:18:45;;;;;;;4.20;3.43;;;;;;;9.82;100.00;94248.50;7428576;19;20412;-96
2023/12/13 13:28:35;;;;;;;4.50;1.77;;;;;;;9.76;100.00;94245.41;7404042;19;20460;-93
2023/12/13 13:32:20;;;;;;;;;;;;;;;;;;;;;
2023/12/13 14:09:32;;;;;;;1.90;1.60;;;;;;;9.91;100.00;94319.81;7398983;19;20404;-96
2023/12/13 14:12:48;;;;;;;2.63;2.43;;;;;;;9.20;100.00;94234.47;7397135;19;20511;-96
2023/12/13 14:15:56;;;;;;;3.33;2.90;;;;;;;9.23;100.00;94267.81;7401204;19;20389;-96
2023/12/13 14:19:11;;;;;;;3.67;2.07;;;;;;;9.44;100.00;94307.56;7427750;19;20398;-96
2023/12/13 14:34:11;;;;;;;1.77;1.50;;;;;;;9.40;100.00;94321.66;7399726;19;20666;-96
2023/12/13 14:37:22;;;;;;;3.30;1.13;;;;;;;8.94;100.00;94274.25;7400640;19;20352;-96
2023/12/13 14:40:51;;;;;;;1.23;1.13;;;;;;;8.55;100.00;94226.22;7403580;19;20372;-96
2023/12/13 14:44:33;;;;;;;;;;;;;;;;;;;;;
2023/12/13 14:52:11;;;;;;;;;;;;;;;;;;;;;
2023/12/13 14:55:30;;;;;;;2.87;2.67;;;;;;;8.52;100.00;94245.94;7417177;19;20387;-96
2023/12/13 14:59:07;;;;;;;6.00;3.73;;;;;;;8.51;100.00;94247.03;7412127;19;20380;-96
2023/12/13 15:06:14;;;;;;;3.70;2.20;;;;;;;8.92;100.00;94286.91;7420876;19;20394;-96
2023/12/13 15:09:46;;;;;;;1.50;1.40;;;;;;;9.39;100.00;94325.38;7414075;19;20345;-96
2023/12/13 15:16:56;;;;;;;2.50;2.00;;;;;;;8.52;100.00;94237.34;7409460;19;20407;-96
2023/12/13 15:20:07;;;;;;;1.43;1.33;;;;;;;8.71;100.00;94268.81;7413996;19;20364;-96
2023/12/13 15:23:19;;;;;;;2.03;1.70;;;;;;;8.70;100.00;94267.28;7410388;19;20420;-96
2023/12/13 15:30:31;;;;;;;2.80;2.53;;;;;;;9.18;100.00;94312.56;7407128;19;20368;-96
2023/12/13 15:33:45;;;;;;;2.40;2.20;;;;;;;8.99;100.00;94278.44;7404380;19;20384;-96
2023/12/13 15:37:19;;;;;;;3.23;2.13;;;;;;;9.28;100.00;94335.59;7404227;19;20380;-96
2023/12/13 15:41:01;;;;;;;3.97;1.67;;;;;;;9.26;100.00;94340.41;7411613;19;20369;-96
2023/12/13 15:44:15;;;;;;;4.50;2.03;;;;;;;9.05;100.00;94350.38;7411655;19;20394;-96
2023/12/13 15:51:52;;;;;;;;;;;;;;;;;;;;;
2023/12/13 15:59:47;;;;;;;;;;;;;;;;;;;;;
2023/12/13 16:02:56;;;;;;;4.73;4.30;;;;;;;8.81;100.00;94318.00;7406011;19;20400;-96
2023/12/13 16:06:08;;;;;;;;;;;;;;;;;;;;;
2023/12/13 16:09:45;;;;;;;3.53;3.20;;;;;;;8.83;100.00;94346.44;7405849;19;20400;-96
2023/12/13 16:13:28;;;;;;;3.70;2.97;;;;;;;8.75;100.00;94337.66;7404368;19;20424;-96
2023/12/13 16:16:44;;;;;;;4.40;4.10;;;;;;;8.50;100.00;94328.38;7408505;19;20992;-96
2023/12/13 16:20:27;;;;;;;5.20;4.70;;;;;;;8.58;100.00;94337.94;7409020;19;20379;-96
2023/12/13 16:24:10;;;;;;;9.73;8.77;;;;;;;8.52;100.00;94329.59;7410398;19;20369;-96
2023/12/13 16:27:51;;;;;;;7.60;6.73;;;;;;;8.56;100.00;94343.50;7410172;19;20357;-96
2023/12/13 16:38:19;;;;;;;137.03;85.00;;;;;;;8.00;100.00;94252.03;7410253;19;20332;-96
2023/12/13 16:41:28;;;;;;;11.40;10.20;;;;;;;8.35;100.00;94314.19;7408041;19;20361;-96
2023/12/13 16:48:56;;;;;;;;;;;;;;;;;;;;;
2023/12/13 16:52:02;;;;;;;11.20;9.63;;;;;;;8.26;100.00;94311.72;7423871;19;20392;-96
2023/12/13 16:55:08;;;;;;;6.93;6.30;;;;;;;8.15;100.00;94304.69;7430370;19;20380;-96
2023/12/13 16:58:17;;;;;;;6.27;5.67;;;;;;;7.84;100.00;94263.50;7422495;19;20381;-96
2023/12/13 17:01:47;;;;;;;6.80;6.20;;;;;;;8.40;100.00;94352.41;7422723;19;20415;-96
2023/12/13 17:05:31;;;;;;;;;;;;;;;;;;;;;
2023/12/13 17:09:06;;;;;;;;;;;;;;;;;;;;;
2023/12/13 17:47:10;;;;;;;;;;;;;;;;;;;;;
2023/12/13 17:51:05;;;;;;;15.43;13.93;;;;;;;7.77;100.00;94397.25;7395602;19;20854;-86
2023/12/13 18:06:31;;;;;;;10.50;9.30;;;;;;;7.66;100.00;94402.13;7394076;19;20719;-86
2023/12/13 18:36:00;;;;;;;12.30;10.60;;;;;;;7.15;100.00;94320.75;7398006;19;20378;-90
2023/12/13 18:39:50;;;;;;;;;;;;;;;;;;;;;
2023/12/13 19:16:21;;;;;;;;;;;;;;;;;;;;;
2023/12/13 19:24:14;;;;;;;;;;;;;;;;;;;;;
2023/12/13 19:56:48;;;;;;;12.70;10.30;;;;;;;7.43;100.00;94489.75;7400738;19;20421;-87
2023/12/13 20:00:25;;;;;;;;;;;;;;;;;;;;;
2023/12/13 20:04:09;;;;;;;12.03;10.73;;;;;;;7.44;100.00;94515.53;7420230;19;20404;-91
2023/12/13 20:07:38;;;;;;;;;;;;;;;;;;;;;
2023/12/13 20:18:56;;;;;;;;;;;;;;;;;;;;;
2023/12/13 20:22:35;;;;;;;;;;;;;;;;;;;;;
2023/12/13 20:26:02;;;;;;;18.07;15.70;;;;;;;7.28;100.00;94534.72;7398750;19;20371;-91
2023/12/13 20:29:31;;;;;;;19.10;14.27;;;;;;;7.37;100.00;94527.56;7400454;19;20395;-91
2023/12/13 20:33:18;;;;;;;20.60;14.37;;;;;;;6.71;100.00;94420.59;7399252;19;20416;-91
2023/12/13 20:41:23;;;;;;;;;;;;;;;;;;;;;
2023/12/13 20:49:10;;;;;;;16.67;13.10;;;;;;;7.32;100.00;94522.56;7397975;19;20400;-88
2023/12/13 21:23:02;;;;;;;14.90;12.67;;;;;;;7.86;100.00;94572.13;7395844;19;20412;-89
2023/12/13 21:26:28;;;;;;;14.90;13.30;;;;;;;7.77;100.00;94580.03;7399444;19;20363;-89
2023/12/13 21:29:35;;;;;;;14.23;12.30;;;;;;;7.31;100.00;94536.69;7397105;19;20393;-87
2023/12/13 21:32:29;;;;;;;21.17;16.87;;;;;;;6.95;100.00;94517.19;7395712;19;20424;-87
2023/12/13 21:35:40;;;;;;;16.53;14.33;;;;;;;7.13;100.00;94569.97;7397665;19;20388;-87
2023/12/13 21:38:55;;;;;;;12.87;11.57;;;;;;;7.02;100.00;94566.97;7396821;19;20380;-87
2023/12/13 21:42:08;;;;;;;;;;;;;;;;;;;;;
2023/12/13 21:45:24;;;;;;;15.83;12.03;;;;;;;6.73;100.00;94479.16;7396758;19;20381;-87
2023/12/13 21:48:20;;;;;;;17.50;10.90;;;;;;;7.21;100.00;94547.53;7398581;19;20372;-87
2023/12/13 21:51:05;;;;;;;15.60;13.43;;;;;;;6.84;100.00;94476.94;7396823;19;20435;-89
2023/12/13 21:54:00;;;;;;;16.00;12.60;;;;;;;6.92;100.00;94494.38;7397001;19;20364;-88
2023/12/13 21:57:30;;;;;;;17.03;12.90;;;;;;;7.59;100.00;94608.16;7397229;19;20368;-89
2023/12/13 22:00:37;;;;;;;;;;;;;;;;;;;;;
2023/12/13 22:04:39;;;;;;;20.83;12.33;;;;;;;6.87;100.00;94552.66;7397906;19;20387;-89
2023/12/13 22:07:48;;;;;;;27.43;12.20;;;;;;;6.71;100.00;94533.47;7396194;19;20869;-89
2023/12/13 22:10:48;;;;;;;28.27;12.50;;;;;;;7.19;100.00;94607.09;7395922;19;20384;-88
2023/12/13 22:13:24;;;;;;;27.87;11.10;;;;;;;6.82;100.00;94557.31;7396686;19;20369;-89
2023/12/13 22:16:03;;;;;;;25.63;11.83;;;;;;;6.80;100.00;94559.47;7395937;19;20400;-89
2023/12/13 22:50:55;;;;;;;14.93;10.97;;;;;;;6.98;100.00;94644.34;7397059;19;20404;-89
2023/12/13 22:53:27;;;;;;;13.50;9.70;;;;;;;6.87;100.00;94643.16;7397174;19;20377;-89
2023/12/13 22:56:04;;;;;;;13.60;9.60;;;;;;;5.74;100.00;94506.69;7396930;19;20837;-87
2023/12/13 22:58:35;;;;;;;15.57;9.87;;;;;;;6.12;100.00;94575.16;7396864;19;20437;-87
2023/12/13 23:01:42;;;;;;;13.10;8.53;;;;;;;6.20;100.00;94587.34;7394729;19;20397;-87
2023/12/13 23:05:10;;;;;;;20.70;9.60;;;;;;;5.82;100.00;94540.47;7395736;19;20372;-87
2023/12/13 23:08:01;;;;;;;24.40;10.27;;;;;;;6.33;100.00;94606.47;7396722;19;20458;-87
2023/12/13 23:10:31;;;;;;;12.73;8.87;;;;;;;6.23;100.00;94604.97;7394578;19;20381;-87
2023/12/13 23:13:04;;;;;;;11.67;7.90;;;;;;;6.21;100.00;94596.69;7394981;19;20377;-87
2023/12/13 23:15:34;;;;;;;11.70;8.10;;;;;;;6.15;100.00;94581.56;7402006;19;20411;-87
2023/12/13 23:18:04;;;;;;;10.70;7.90;;;;;;;6.04;100.00;94578.53;7407146;19;20369;-87
2023/12/13 23:20:38;;;;;;;11.83;8.97;;;;;;;6.03;100.00;94561.38;7421250;19;20365;-87
2023/12/13 23:23:08;;;;;;;13.47;7.90;;;;;;;6.35;100.00;94601.69;7417371;19;20830;-88
2023/12/13 23:25:39;;;;;;;11.73;7.77;;;;;;;6.43;100.00;94621.00;7403367;19;20381;-88
2023/12/13 23:28:07;;;;;;;9.33;6.90;;;;;;;5.67;100.00;94505.31;7401990;19;20360;-88
2023/12/13 23:30:36;;;;;;;10.63;8.27;;;;;;;5.80;100.00;94541.84;7401411;19;20452;-85